Time;durP1;ratioP1;P1;durP2;ratioP2;P2;SDS_P1;SDS_P2;PMS_P1;PMS_P2;Temp;Humidity;BMP_temperature;BMP_pressure;BME280_temperature;BME280_humidity;BME280_pressure;Samples;Min_cycle;Max_cycle;Signal;HPM_P1;HPM_P2
2021/12/04 00:01:51;;;;;;;4.53;1.50;;;;;;;-0.46;68.68;94820.53;4830209;29;20512;-46
2021/12/04 00:04:28;;;;;;;3.33;1.88;;;;;;;-0.51;68.59;94834.69;4834626;29;20129;-44
2021/12/04 00:06:55;;;;;;;3.63;1.50;;;;;;;-0.24;68.12;94807.41;4833736;29;20046;-46
2021/12/04 00:09:22;;;;;;;4.35;1.60;;;;;;;-0.09;67.39;94808.25;4840053;29;20053;-46
2021/12/04 00:11:56;;;;;;;3.13;1.83;;;;;;;0.07;67.31;94793.63;4829373;29;20050;-43
2021/12/04 00:14:23;;;;;;;3.55;1.45;;;;;;;-0.09;67.66;94779.00;4827237;29;20428;-46
2021/12/04 00:16:52;;;;;;;2.72;1.60;;;;;;;-0.18;67.64;94776.22;4834957;29;20053;-49
2021/12/04 00:19:19;;;;;;;2.60;1.35;;;;;;;-0.36;68.19;94761.88;4824704;29;20095;-44
2021/12/04 00:21:46;;;;;;;3.15;1.55;;;;;;;-0.25;68.15;94779.25;4836060;29;20053;-48
2021/12/04 00:24:13;;;;;;;3.47;1.60;;;;;;;-0.25;68.34;94768.63;4831600;29;20452;-46
2021/12/04 00:26:40;;;;;;;4.47;1.60;;;;;;;-0.28;68.22;94768.44;4824588;29;20635;-46
2021/12/04 00:29:08;;;;;;;3.33;1.63;;;;;;;-0.05;67.85;94762.16;4838629;29;20054;-45
2021/12/04 00:31:35;;;;;;;3.05;1.70;;;;;;;-0.40;67.64;94750.28;4827675;29;20042;-47
2021/12/04 00:34:02;;;;;;;4.13;1.65;;;;;;;-0.07;67.80;94736.94;4824648;29;20057;-46
2021/12/04 00:36:42;;;;;;;6.47;1.75;;;;;;;-0.21;67.79;94752.09;4823620;29;20055;-43
2021/12/04 00:50:11;;;;;;;4.18;1.50;;;;;;;0.13;67.24;94714.50;4832920;29;20072;-46
2021/12/04 00:52:39;;;;;;;2.85;1.30;;;;;;;-0.02;67.56;94719.03;4841651;29;20129;-42
2021/12/04 00:55:06;;;;;;;4.82;1.40;;;;;;;0.08;67.49;94717.28;4835864;29;20141;-45
2021/12/04 00:57:33;;;;;;;4.95;1.42;;;;;;;0.28;67.17;94705.44;4839252;29;20069;-50
2021/12/04 01:00:01;;;;;;;3.15;1.40;;;;;;;0.08;67.53;94706.63;4836705;29;20042;-51
2021/12/04 01:02:29;;;;;;;2.75;1.45;;;;;;;0.22;67.20;94708.19;4829103;29;20481;-46
2021/12/04 01:04:56;;;;;;;3.78;1.58;;;;;;;0.17;67.29;94695.00;4834079;29;20398;-46
2021/12/04 01:07:24;;;;;;;3.97;1.50;;;;;;;0.23;67.50;94704.47;4823358;29;20089;-48
2021/12/04 01:09:52;;;;;;;2.33;1.15;;;;;;;0.23;67.06;94696.50;4825373;29;20046;-47
2021/12/04 01:12:19;;;;;;;3.78;1.42;;;;;;;0.10;67.47;94710.56;4831778;29;20049;-47
2021/12/04 01:14:47;;;;;;;3.97;1.50;;;;;;;0.09;67.52;94713.53;4837701;29;20520;-46
2021/12/04 01:17:14;;;;;;;4.47;1.33;;;;;;;0.19;67.52;94714.09;4825791;29;20142;-47
2021/12/04 01:19:41;;;;;;;2.58;1.40;;;;;;;0.42;67.13;94722.97;4830519;29;20049;-45
2021/12/04 01:22:08;;;;;;;2.15;1.17;;;;;;;0.17;67.20;94726.94;4836330;29;20109;-46
2021/12/04 01:24:35;;;;;;;2.28;1.10;;;;;;;-0.03;67.64;94738.75;4832489;29;20053;-48
2021/12/04 01:27:02;;;;;;;2.40;1.15;;;;;;;0.08;67.42;94698.66;4838680;29;20058;-47
2021/12/04 01:29:29;;;;;;;3.20;1.40;;;;;;;-0.02;68.13;94726.22;4828431;29;20048;-49
2021/12/04 01:31:56;;;;;;;2.22;1.10;;;;;;;0.05;67.44;94733.81;4825405;29;20054;-48
2021/12/04 01:34:23;;;;;;;3.03;1.20;;;;;;;-0.09;67.99;94723.19;4834905;29;20050;-46
2021/12/04 01:36:50;;;;;;;2.72;1.50;;;;;;;-0.19;68.30;94732.13;4822395;29;20111;-44
2021/12/04 01:39:17;;;;;;;3.20;1.52;;;;;;;-0.07;68.07;94721.00;4826451;29;20493;-47
2021/12/04 01:41:44;;;;;;;4.05;1.23;;;;;;;-0.18;68.47;94722.28;4835932;29;20099;-44
2021/12/04 01:44:14;;;;;;;2.25;1.20;;;;;;;-0.18;68.05;94722.28;4823682;29;20119;-45
2021/12/04 01:46:42;;;;;;;1.95;1.17;;;;;;;-0.11;67.47;94709.38;4822652;29;20054;-44
2021/12/04 01:49:09;;;;;;;4.03;1.27;;;;;;;0.07;67.23;94692.56;4835200;29;20073;-44
2021/12/04 01:51:37;;;;;;;3.90;1.20;;;;;;;0.36;66.33;94657.66;4834209;29;20471;-46
2021/12/04 01:54:05;;;;;;;2.42;1.00;;;;;;;0.45;66.41;94658.50;4835948;29;20058;-46
2021/12/04 01:56:33;;;;;;;4.25;1.17;;;;;;;0.33;66.82;94654.81;4827319;29;20083;-47
2021/12/04 01:59:01;;;;;;;2.03;1.00;;;;;;;0.51;66.66;94648.53;4832184;29;20054;-44
2021/12/04 02:01:31;;;;;;;2.78;1.40;;;;;;;0.62;67.00;94635.81;4823222;29;20046;-43
2021/12/04 02:04:02;;;;;;;2.92;1.23;;;;;;;0.31;68.52;94619.72;4835064;29;20089;-46
2021/12/04 02:06:29;;;;;;;2.83;1.30;;;;;;;0.60;67.98;94622.00;4835009;29;20046;-43
2021/12/04 02:08:56;;;;;;;4.35;1.58;;;;;;;0.61;68.28;94624.34;4838993;29;20046;-46
2021/12/04 02:11:23;;;;;;;3.30;1.67;;;;;;;0.74;68.41;94621.94;4840964;29;20121;-47
2021/12/04 02:13:50;;;;;;;3.03;1.42;;;;;;;0.84;68.19;94611.84;4833455;29;20046;-45
2021/12/04 02:16:19;;;;;;;2.45;1.45;;;;;;;0.93;68.08;94599.38;4825078;29;20050;-45
2021/12/04 02:18:46;;;;;;;3.72;1.40;;;;;;;1.08;67.99;94600.13;4841048;29;20058;-43
2021/12/04 02:21:15;;;;;;;3.38;1.40;;;;;;;1.01;68.77;94595.22;4828939;29;20125;-46
2021/12/04 02:23:42;;;;;;;2.85;1.48;;;;;;;1.11;68.30;94580.88;4838087;29;20077;-45
2021/12/04 02:26:09;;;;;;;3.22;1.20;;;;;;;1.23;68.41;94596.25;4837794;29;20054;-46
2021/12/04 02:28:36;;;;;;;4.45;1.88;;;;;;;1.31;68.20;94588.31;4823898;29;20054;-45
2021/12/04 02:31:03;;;;;;;4.60;2.00;;;;;;;1.24;69.11;94590.66;4828643;29;20050;-46
2021/12/04 02:33:30;;;;;;;2.70;1.48;;;;;;;1.24;69.35;94608.50;4833315;29;20046;-46
2021/12/04 02:35:57;;;;;;;4.18;1.50;;;;;;;1.20;69.13;94605.66;4826527;29;20050;-44
2021/12/04 02:38:26;;;;;;;3.80;1.52;;;;;;;1.05;70.27;94606.84;4824575;29;20458;-44
2021/12/04 02:40:57;;;;;;;2.72;1.48;;;;;;;1.05;70.19;94595.41;4838921;29;20089;-50
2021/12/04 02:43:24;;;;;;;3.33;1.40;;;;;;;1.04;70.47;94588.47;4845705;29;20123;-47
2021/12/04 02:45:51;;;;;;;2.95;1.50;;;;;;;1.22;70.19;94592.03;4822940;29;20058;-45
2021/12/04 02:48:18;;;;;;;2.25;1.25;;;;;;;1.15;70.63;94595.91;4837467;29;20048;-44
2021/12/04 02:50:46;;;;;;;2.40;1.10;;;;;;;1.30;70.84;94597.41;4829654;29;21627;-46
2021/12/04 02:53:13;;;;;;;3.75;1.40;;;;;;;1.16;70.94;94594.81;4821779;29;20046;-45
2021/12/04 02:55:40;;;;;;;2.33;1.20;;;;;;;0.79;72.78;94595.22;4824611;29;20061;-45
2021/12/04 02:58:07;;;;;;;2.08;1.20;;;;;;;0.64;73.07;94591.81;4825843;29;20047;-46
2021/12/04 03:00:47;;;;;;;2.10;1.20;;;;;;;0.59;73.63;94589.28;4829317;29;20048;-46
2021/12/04 03:03:17;;;;;;;3.40;1.52;;;;;;;0.52;74.20;94596.91;4828151;29;20073;-48
2021/12/04 03:05:49;;;;;;;4.32;1.10;;;;;;;0.42;74.71;94589.94;4832768;29;20148;-45
2021/12/04 03:08:17;;;;;;;2.72;1.60;;;;;;;0.62;74.68;94572.72;4832695;29;20081;-47
2021/12/04 03:10:47;;;;;;;3.08;1.20;;;;;;;0.81;73.91;94571.72;4826136;29;20047;-45
2021/12/04 03:13:17;;;;;;;3.30;1.40;;;;;;;0.73;74.27;94573.25;4829856;29;20054;-47
2021/12/04 03:15:47;;;;;;;2.45;1.15;;;;;;;0.88;74.12;94578.22;4821649;29;20628;-47
2021/12/04 03:18:14;;;;;;;5.78;1.38;;;;;;;0.98;73.71;94579.84;4820189;29;20079;-46
2021/12/04 03:20:44;;;;;;;4.60;2.03;;;;;;;0.91;74.06;94574.94;4828013;29;20043;-46
2021/12/04 03:23:19;;;;;;;2.72;1.20;;;;;;;1.09;73.46;94575.81;4839030;29;20057;-48
2021/12/04 03:25:49;;;;;;;2.08;1.23;;;;;;;1.13;73.42;94571.44;4842698;29;20519;-49
2021/12/04 03:28:18;;;;;;;3.92;1.40;;;;;;;1.24;72.93;94557.91;4834880;29;20130;-45
2021/12/04 03:30:50;;;;;;;2.70;1.30;;;;;;;1.20;72.93;94564.91;4839075;29;20133;-46
2021/12/04 03:41:30;;;;;;;3.92;1.33;;;;;;;1.13;73.59;94544.81;4839041;29;20065;-46
2021/12/04 03:43:57;;;;;;;2.70;1.30;;;;;;;0.83;75.71;94546.38;4825503;29;20088;-45
2021/12/04 03:46:25;;;;;;;3.42;1.50;;;;;;;0.54;76.33;94525.53;4824780;29;20081;-46
2021/12/04 03:48:53;;;;;;;5.40;1.75;;;;;;;0.81;75.01;94519.25;4833787;29;20077;-44
2021/12/04 03:51:21;;;;;;;4.82;1.45;;;;;;;1.01;74.82;94530.50;4843325;29;20069;-46
2021/12/04 03:53:48;;;;;;;5.00;1.80;;;;;;;0.84;75.87;94525.84;4827816;29;20489;-46
2021/12/04 03:56:19;;;;;;;3.67;1.80;;;;;;;0.59;77.95;94508.66;4838202;29;20053;-44
2021/12/04 03:58:46;;;;;;;3.10;1.30;;;;;;;0.21;80.13;94466.44;4839121;29;20149;-46
2021/12/04 04:01:13;;;;;;;4.05;1.65;;;;;;;-0.18;84.63;94496.31;4852722;29;20042;-44
2021/12/04 04:03:40;;;;;;;3.08;1.30;;;;;;;0.14;82.85;94452.78;4833622;29;20137;-45
2021/12/04 04:06:07;;;;;;;2.33;1.33;;;;;;;-0.03;83.28;94462.22;4836805;29;20046;-44
2021/12/04 04:08:34;;;;;;;1.67;1.00;;;;;;;0.10;83.17;94467.75;4827952;29;20119;-43
2021/12/04 04:11:02;;;;;;;1.23;0.80;;;;;;;0.07;83.28;94460.41;4823769;29;20516;-43
2021/12/04 04:13:29;;;;;;;3.33;1.20;;;;;;;-0.06;83.89;94454.84;4833752;29;20570;-45
2021/12/04 04:15:58;;;;;;;3.15;1.25;;;;;;;0.12;83.31;94447.75;4828499;29;20061;-44
2021/12/04 04:18:26;;;;;;;2.63;1.10;;;;;;;0.41;82.08;94457.19;4824994;29;20057;-43
2021/12/04 04:20:54;;;;;;;2.50;1.15;;;;;;;0.61;81.29;94448.69;4831121;29;20048;-44
2021/12/04 04:23:21;;;;;;;2.03;1.05;;;;;;;0.47;81.71;94446.13;4825822;29;20103;-43
2021/12/04 04:25:48;;;;;;;2.28;1.30;;;;;;;0.59;81.62;94452.78;4830814;29;20060;-45
2021/12/04 04:28:14;;;;;;;3.08;1.35;;;;;;;0.57;82.32;94446.97;4832552;29;20462;-45
2021/12/04 04:30:41;;;;;;;1.60;1.10;;;;;;;0.44;83.00;94452.03;4829559;29;20058;-46
2021/12/04 04:33:12;;;;;;;1.95;1.10;;;;;;;0.28;84.02;94453.50;4834819;29;20081;-45
2021/12/04 04:35:39;;;;;;;2.30;1.20;;;;;;;0.36;83.94;94449.34;4826359;29;20038;-47
2021/12/04 05:10:51;;;;;;;1.52;0.90;;;;;;;0.59;86.05;94408.31;4826240;29;20054;-45
2021/12/04 05:13:21;;;;;;;3.13;1.10;;;;;;;0.81;85.02;94407.44;4824555;29;20047;-45
2021/12/04 05:21:08;;;;;;;1.95;0.93;;;;;;;0.61;87.18;94395.47;4827360;29;20074;-49
2021/12/04 05:23:35;;;;;;;1.45;0.80;;;;;;;0.46;88.01;94399.31;4828221;29;20050;-47
2021/12/04 05:26:07;;;;;;;1.92;0.90;;;;;;;0.52;88.17;94388.53;4831600;29;20535;-44
2021/12/04 05:28:34;;;;;;;2.13;0.90;;;;;;;0.54;88.31;94379.16;4824115;29;20050;-45
2021/12/04 05:31:01;;;;;;;2.42;1.08;;;;;;;0.67;88.32;94375.59;4823909;29;20049;-45
2021/12/04 05:33:29;;;;;;;1.77;0.93;;;;;;;0.66;87.94;94357.28;4835240;29;20541;-49
2021/12/04 05:35:56;;;;;;;2.17;1.33;;;;;;;0.82;87.87;94365.66;4825974;29;20054;-46
2021/12/04 05:38:24;;;;;;;1.30;0.90;;;;;;;0.67;88.67;94366.84;4824199;29;20149;-44
2021/12/04 05:40:52;;;;;;;1.65;0.80;;;;;;;0.80;88.52;94367.81;4831910;29;20046;-46
2021/12/04 05:43:22;;;;;;;1.98;0.80;;;;;;;0.88;87.49;94359.88;4829475;29;20567;-46
2021/12/04 05:45:57;;;;;;;1.80;0.90;;;;;;;0.90;87.95;94354.22;4826314;29;20046;-43
2021/12/04 05:48:31;;;;;;;2.30;1.05;;;;;;;0.95;88.09;94351.44;4833384;29;20118;-44
2021/12/04 05:53:43;;;;;;;2.40;1.20;;;;;;;1.19;86.95;94358.22;4830623;29;20428;-46
2021/12/04 05:56:10;;;;;;;2.17;1.08;;;;;;;1.27;86.69;94346.78;4834641;29;20055;-46
2021/12/04 05:58:37;;;;;;;3.85;1.00;;;;;;;1.33;86.88;94341.00;4824091;29;20060;-44
2021/12/04 06:01:05;;;;;;;1.95;1.10;;;;;;;1.25;87.77;94341.75;4827470;29;20046;-44
2021/12/04 06:03:34;;;;;;;1.67;0.90;;;;;;;1.23;87.39;94337.84;4827724;29;20130;-48
2021/12/04 06:06:02;;;;;;;1.83;0.85;;;;;;;1.40;86.96;94341.31;4824421;29;20046;-43
2021/12/04 06:08:30;;;;;;;2.10;1.00;;;;;;;1.39;86.87;94323.75;4835717;29;20045;-46
2021/12/04 06:10:57;;;;;;;3.42;1.08;;;;;;;1.47;87.04;94321.41;4825206;29;20054;-45
2021/12/04 06:13:25;;;;;;;3.00;1.13;;;;;;;1.38;87.02;94329.41;4827862;29;20050;-47
2021/12/04 06:15:53;;;;;;;2.72;1.08;;;;;;;1.43;87.33;94325.78;4825018;29;20050;-46
2021/12/04 06:18:21;;;;;;;3.15;1.20;;;;;;;1.51;87.37;94325.00;4822977;29;20050;-45
2021/12/04 06:23:36;;;;;;;2.90;1.20;;;;;;;1.50;87.99;94310.91;4822154;29;20046;-47
2021/12/04 06:26:07;;;;;;;1.35;0.90;;;;;;;1.61;87.82;94314.81;4832785;29;20129;-43
2021/12/04 06:28:35;;;;;;;1.75;0.98;;;;;;;1.39;87.97;94317.63;4827393;29;20045;-49
2021/12/04 06:31:02;;;;;;;1.90;0.90;;;;;;;1.47;88.22;94316.88;4825425;29;20065;-45
2021/12/04 06:33:29;;;;;;;3.08;1.05;;;;;;;1.67;87.42;94312.00;4825312;29;20053;-47
2021/12/04 06:35:56;;;;;;;4.60;1.00;;;;;;;1.67;87.54;94312.00;4825415;29;20048;-46
2021/12/04 06:38:24;;;;;;;2.03;0.90;;;;;;;1.67;87.77;94312.00;4828325;29;20042;-45
2021/12/04 06:40:52;;;;;;;2.90;1.25;;;;;;;1.82;87.33;94306.16;4828447;29;20047;-45
2021/12/04 06:43:19;;;;;;;3.40;1.25;;;;;;;1.75;87.28;94308.53;4824713;29;20046;-43
2021/12/04 06:45:56;;;;;;;2.53;1.27;;;;;;;1.59;88.79;94313.56;4823401;29;20123;-43
2021/12/04 06:48:26;;;;;;;3.72;1.40;;;;;;;1.75;88.58;94319.19;4822651;29;20137;-45
2021/12/04 06:51:03;;;;;;;3.85;1.30;;;;;;;1.80;87.96;94311.81;4826578;29;20065;-49
2021/12/04 06:56:08;;;;;;;4.28;1.60;;;;;;;1.79;88.92;94317.47;4839627;29;20058;-47
2021/12/04 06:58:36;;;;;;;1.83;1.20;;;;;;;1.81;88.67;94312.59;4841867;29;20052;-45
2021/12/04 07:01:06;;;;;;;1.83;1.00;;;;;;;1.99;88.41;94302.69;4850060;29;20050;-47
2021/12/04 07:03:33;;;;;;;3.08;1.45;;;;;;;1.94;87.80;94298.28;4841834;29;20049;-45
2021/12/04 07:06:00;;;;;;;2.22;1.20;;;;;;;1.97;88.12;94308.34;4834075;29;20115;-46
2021/12/04 07:08:29;;;;;;;2.17;1.27;;;;;;;1.97;88.47;94305.66;4828978;29;20046;-44
2021/12/04 07:10:57;;;;;;;2.13;1.05;;;;;;;2.05;87.97;94310.22;4848185;29;20050;-45
2021/12/04 07:13:24;;;;;;;2.70;1.40;;;;;;;1.87;88.92;94311.34;4825408;29;20047;-46
2021/12/04 07:16:00;;;;;;;2.65;1.50;;;;;;;2.04;88.72;94311.28;4827254;29;20042;-45
2021/12/04 07:18:28;;;;;;;3.15;1.67;;;;;;;1.87;89.53;94293.44;4838538;29;20073;-45
2021/12/04 07:20:56;;;;;;;2.78;1.40;;;;;;;1.90;89.77;94289.38;4837578;29;20626;-44
2021/12/04 07:23:23;;;;;;;2.40;1.08;;;;;;;1.76;90.69;94294.88;4836740;29;20062;-45
2021/12/04 07:25:50;;;;;;;3.22;1.27;;;;;;;1.96;89.80;94284.66;4836518;29;20050;-47
2021/12/04 07:28:17;;;;;;;2.15;1.25;;;;;;;1.74;91.08;94272.31;4835929;29;20049;-46
2021/12/04 07:30:44;;;;;;;2.78;1.60;;;;;;;1.89;90.75;94271.81;4826111;29;20050;-43
2021/12/04 07:33:11;;;;;;;2.45;1.30;;;;;;;2.06;89.88;94277.09;4839187;29;20437;-44
2021/12/04 07:35:38;;;;;;;4.57;1.80;;;;;;;2.21;89.29;94277.66;4836394;29;20042;-45
2021/12/04 07:38:05;;;;;;;4.05;1.52;;;;;;;2.08;89.98;94264.22;4831136;29;20054;-48
2021/12/04 07:40:32;;;;;;;5.68;1.38;;;;;;;2.08;89.87;94258.88;4825862;29;20046;-44
2021/12/04 07:42:59;;;;;;;6.57;1.75;;;;;;;2.26;89.43;94262.25;4844209;29;20054;-47
2021/12/04 07:45:26;;;;;;;2.83;1.67;;;;;;;2.15;90.84;94260.28;4826501;29;20046;-45
2021/12/04 07:47:53;;;;;;;6.18;1.80;;;;;;;2.39;89.34;94257.81;4825307;29;20050;-47
2021/12/04 07:50:21;;;;;;;4.18;1.60;;;;;;;2.45;88.79;94256.53;4824880;29;20520;-46
2021/12/04 07:52:49;;;;;;;2.78;1.50;;;;;;;2.48;88.14;94258.56;4830631;29;20489;-45
2021/12/04 07:55:19;;;;;;;2.78;1.63;;;;;;;2.48;87.90;94263.91;4832807;29;20569;-46
2021/12/04 07:57:46;;;;;;;4.70;1.50;;;;;;;2.41;88.88;94255.63;4831735;29;20050;-44
2021/12/04 08:00:15;;;;;;;3.70;1.65;;;;;;;2.60;88.33;94259.75;4845942;29;20050;-45
2021/12/04 08:02:42;;;;;;;3.13;1.30;;;;;;;2.62;87.86;94265.56;4831014;29;20048;-46
2021/12/04 08:05:11;;;;;;;3.80;1.48;;;;;;;2.63;88.07;94251.09;4834327;29;20057;-44
2021/12/04 08:07:38;;;;;;;3.08;1.65;;;;;;;2.48;88.91;94263.91;4846950;29;20053;-48
2021/12/04 08:10:07;;;;;;;3.65;1.55;;;;;;;2.23;90.12;94249.56;4847581;29;20140;-46
2021/12/04 08:12:36;;;;;;;5.03;1.85;;;;;;;2.43;89.88;94256.06;4838416;29;20225;-51
2021/12/04 08:15:04;;;;;;;4.25;1.55;;;;;;;2.24;91.13;94256.47;4833265;29;20050;-52
2021/12/04 08:17:31;;;;;;;3.60;1.58;;;;;;;2.09;92.13;94257.00;4830571;29;20049;-51
2021/12/04 08:19:58;;;;;;;2.40;1.20;;;;;;;2.23;91.93;94254.13;4831004;29;20065;-47
2021/12/04 08:22:25;;;;;;;2.97;1.33;;;;;;;2.34;91.31;94252.69;4834031;29;20041;-41
2021/12/04 08:24:52;;;;;;;2.35;1.33;;;;;;;2.44;91.10;94257.66;4840880;29;20042;-42
2021/12/04 08:27:20;;;;;;;1.85;1.38;;;;;;;2.55;90.11;94248.16;4833296;29;20411;-41
2021/12/04 08:29:46;;;;;;;5.68;1.73;;;;;;;2.44;91.16;94244.31;4825900;29;20073;-42
2021/12/04 08:32:13;;;;;;;4.57;2.03;;;;;;;2.38;91.41;94245.59;4830508;29;20034;-43
2021/12/04 08:34:40;;;;;;;2.90;1.55;;;;;;;2.38;91.54;94244.81;4848861;29;20046;-41
2021/12/04 08:37:07;;;;;;;3.88;1.70;;;;;;;2.40;91.58;94239.91;4847848;29;20424;-45
2021/12/04 08:39:34;;;;;;;3.63;1.90;;;;;;;2.47;93.18;94235.66;4846008;29;20098;-41
2021/12/04 08:42:02;;;;;;;3.55;1.30;;;;;;;2.88;92.09;94244.03;4829458;29;20042;-41
2021/12/04 08:44:30;;;;;;;6.03;1.60;;;;;;;2.94;90.92;94240.09;4839840;29;20581;-43
2021/12/04 08:46:57;;;;;;;3.60;1.20;;;;;;;3.02;89.87;94239.22;4837260;29;20053;-44
2021/12/04 08:49:24;;;;;;;3.58;1.70;;;;;;;3.16;89.29;94231.75;4838274;29;20474;-42
2021/12/04 08:51:51;;;;;;;3.28;1.55;;;;;;;3.21;89.06;94230.75;4826142;29;20048;-44
2021/12/04 08:54:18;;;;;;;3.85;1.77;;;;;;;3.04;90.40;94234.34;4841456;29;20061;-46
2021/12/04 08:56:47;;;;;;;3.08;1.50;;;;;;;3.17;90.00;94225.28;4840204;29;20046;-41
2021/12/04 08:59:14;;;;;;;2.55;1.50;;;;;;;3.21;90.01;94228.09;4825676;29;20047;-43
2021/12/04 09:01:43;;;;;;;3.85;1.60;;;;;;;3.42;89.13;94226.19;4825770;29;20049;-42
2021/12/04 09:04:23;;;;;;;4.72;1.58;;;;;;;3.36;89.15;94227.50;4841375;29;20504;-42
2021/12/04 09:06:52;;;;;;;5.07;1.60;;;;;;;3.58;88.45;94230.94;4824163;29;20137;-46
2021/12/04 09:09:21;;;;;;;3.42;1.75;;;;;;;3.35;89.21;94227.81;4826449;29;20054;-45
2021/12/04 09:12:00;;;;;;;3.00;1.70;;;;;;;3.49;88.64;94231.78;4831291;29;20042;-46
2021/12/04 09:14:32;;;;;;;5.13;1.80;;;;;;;3.31;89.39;94222.34;4833279;29;20056;-46
2021/12/04 09:17:02;;;;;;;3.25;1.90;;;;;;;3.27;90.57;94216.09;4827425;29;20137;-44
2021/12/04 09:19:29;;;;;;;3.05;1.52;;;;;;;3.55;89.47;94228.91;4823757;29;20085;-44
2021/12/04 09:21:57;;;;;;;3.42;1.70;;;;;;;3.51;89.53;94221.53;4834964;29;20125;-44
2021/12/04 09:24:28;;;;;;;2.83;1.63;;;;;;;3.50;89.41;94213.84;4839831;29;20053;-44
2021/12/04 10:05:01;;;;;;;3.80;1.92;;;;;;;4.66;87.58;94177.06;4825867;29;20046;-44
2021/12/04 10:34:36;;;;;;;5.75;2.35;;;;;;;4.91;88.82;94134.94;4842685;29;20141;-42
2021/12/04 10:37:13;;;;;;;5.50;2.50;;;;;;;4.94;89.06;94134.25;4842242;29;20161;-41
2021/12/04 10:39:41;;;;;;;4.30;2.50;;;;;;;5.04;88.95;94133.75;4843647;29;20132;-44
2021/12/04 10:42:14;;;;;;;4.80;2.50;;;;;;;5.13;88.69;94121.00;4832297;29;20537;-42
2021/12/04 10:44:49;;;;;;;5.57;3.35;;;;;;;5.11;89.28;94112.50;4843463;29;20056;-41
2021/12/04 10:47:22;;;;;;;6.28;2.38;;;;;;;5.11;89.79;94117.09;4844332;29;20052;-42
2021/12/04 10:55:13;;;;;;;4.07;2.25;;;;;;;4.89;92.03;94103.09;4839756;29;20060;-43
2021/12/04 11:00:34;;;;;;;3.22;2.05;;;;;;;4.92;93.61;94088.25;4844041;29;20121;-44
2021/12/04 11:03:19;;;;;;;;;;;;;;;4.97;93.86;94081.84;4833078;29;20386;-44
2021/12/04 11:22:48;;;;;;;2.13;1.20;;;;;;;5.30;96.17;94047.50;4842805;29;20050;-45
2021/12/04 11:39:37;;;;;;;1.58;1.00;;;;;;;5.78;92.88;94031.41;4824378;29;20062;-46
2021/12/04 11:44:47;;;;;;;1.17;0.80;;;;;;;5.71;94.07;94028.56;4828232;29;20420;-44
2021/12/04 11:47:14;;;;;;;2.33;0.90;;;;;;;5.77;93.81;94033.31;4829838;29;20054;-45
2021/12/04 11:49:47;;;;;;;1.70;1.10;;;;;;;5.77;94.34;94029.88;4841934;29;20373;-48
2021/12/04 11:52:20;;;;;;;2.17;1.00;;;;;;;5.90;93.72;94031.31;4840656;29;20133;-47
2021/12/04 11:54:53;;;;;;;1.05;0.73;;;;;;;5.62;95.48;94031.41;4811200;29;20052;-45
2021/12/04 11:57:31;;;;;;;1.60;0.93;;;;;;;5.73;94.79;94029.78;4842187;29;20132;-44
2021/12/04 12:00:09;;;;;;;2.15;1.20;;;;;;;5.81;94.59;94020.75;4842674;29;20086;-45
2021/12/04 12:02:37;;;;;;;3.03;1.17;;;;;;;5.78;95.92;94026.03;4842913;29;20067;-46
2021/12/04 12:05:09;;;;;;;2.65;1.00;;;;;;;5.84;95.81;94019.28;4833589;29;20141;-45
2021/12/04 12:07:36;;;;;;;1.98;1.10;;;;;;;5.79;96.47;94020.34;4824816;29;20397;-46
2021/12/04 12:10:13;;;;;;;1.90;1.05;;;;;;;5.96;95.85;94026.50;4824166;29;20073;-45
2021/12/04 12:12:43;;;;;;;3.17;1.35;;;;;;;5.93;96.29;94013.78;4838865;29;20053;-46
2021/12/04 12:15:19;;;;;;;3.88;1.88;;;;;;;5.96;96.69;94018.44;4822149;29;20119;-47
2021/12/04 12:17:46;;;;;;;2.03;1.17;;;;;;;5.92;96.96;94012.97;4838447;29;20519;-46
2021/12/04 12:20:20;;;;;;;3.10;1.17;;;;;;;5.90;98.10;94017.13;4842259;29;20148;-49
2021/12/04 12:22:57;;;;;;;2.13;1.20;;;;;;;6.04;97.30;94017.47;4841663;29;20069;-45
2021/12/04 12:25:39;;;;;;;4.50;2.00;;;;;;;6.11;98.24;94011.47;4837583;29;20101;-45
2021/12/04 12:34:10;;;;;;;2.97;1.20;;;;;;;6.32;97.58;93993.13;4830576;29;20042;-47
2021/12/04 12:36:37;;;;;;;2.00;1.23;;;;;;;6.25;98.32;93991.09;4841555;29;20061;-47
2021/12/04 12:39:04;;;;;;;2.75;1.08;;;;;;;6.15;99.23;93980.91;4842431;29;20074;-45
2021/12/04 12:41:43;;;;;;;1.73;1.00;;;;;;;6.22;98.74;93981.03;4840321;29;20054;-44
2021/12/04 12:44:28;;;;;;;1.63;1.10;;;;;;;6.23;100.00;93974.53;4841233;29;20102;-45
2021/12/04 12:47:04;;;;;;;2.42;1.00;;;;;;;6.36;100.00;93985.16;4841535;29;20505;-45
2021/12/04 12:49:38;;;;;;;3.55;1.00;;;;;;;6.20;100.00;93972.56;4838235;29;20050;-44
2021/12/04 12:52:05;;;;;;;;;;;;;;;6.40;99.75;93964.50;4823798;29;20050;-44
2021/12/04 12:54:38;;;;;;;2.92;1.13;;;;;;;6.57;98.98;93964.09;4821788;29;19950;-45
2021/12/04 12:57:10;;;;;;;3.65;0.90;;;;;;;6.41;100.00;93949.97;4841116;29;20057;-48
2021/12/04 13:14:29;;;;;;;2.55;0.80;;;;;;;6.75;97.89;93949.06;4847973;29;20050;-45
2021/12/04 13:16:59;;;;;;;1.05;0.70;;;;;;;6.77;97.86;93941.44;4839898;29;20049;-46
2021/12/04 13:19:27;;;;;;;0.77;0.60;;;;;;;6.77;98.29;93954.88;4824027;29;20057;-45
2021/12/04 13:21:58;;;;;;;1.55;0.70;;;;;;;6.82;97.13;93948.44;4837845;29;20050;-50
2021/12/04 13:24:29;;;;;;;3.15;0.82;;;;;;;6.93;96.50;93941.34;4837229;29;20085;-47
2021/12/04 13:29:47;;;;;;;1.63;0.50;;;;;;;6.97;95.64;93944.88;4841006;29;20052;-44
2021/12/04 13:32:17;;;;;;;3.28;0.85;;;;;;;7.01;95.23;93942.22;4841030;29;20094;-46
2021/12/04 13:34:44;;;;;;;4.25;1.75;;;;;;;7.16;94.58;93944.03;4823694;29;20046;-45
2021/12/04 13:37:12;;;;;;;1.70;0.65;;;;;;;7.12;94.37;93935.16;4839579;29;20046;-44
2021/12/04 13:39:42;;;;;;;1.05;0.70;;;;;;;7.14;92.09;93938.22;4841025;29;20049;-45
2021/12/04 13:42:09;;;;;;;1.55;0.70;;;;;;;7.26;92.71;93940.75;4826659;29;20074;-44
2021/12/04 13:44:37;;;;;;;2.63;1.10;;;;;;;7.36;91.05;93941.28;4821462;29;20047;-45
2021/12/04 13:47:08;;;;;;;2.95;0.80;;;;;;;7.35;91.65;93931.66;4838136;29;20166;-44
2021/12/04 13:49:37;;;;;;;0.82;0.43;;;;;;;7.35;90.67;93937.06;4828765;29;20509;-45
2021/12/04 13:52:11;;;;;;;0.40;0.40;;;;;;;7.36;88.82;93934.00;4836400;29;20502;-45
2021/12/04 13:54:49;;;;;;;0.70;0.50;;;;;;;7.46;89.54;93924.53;4835018;29;20053;-45
2021/12/04 13:57:17;;;;;;;1.23;0.57;;;;;;;7.42;89.30;93932.56;4837781;29;20098;-43
2021/12/04 13:59:44;;;;;;;2.63;0.40;;;;;;;7.42;89.59;93916.41;4824623;29;20116;-45
2021/12/04 14:02:29;;;;;;;0.50;0.40;;;;;;;7.44;87.91;93913.34;4839463;29;20157;-45
2021/12/04 14:05:16;;;;;;;1.50;0.50;;;;;;;7.46;87.23;93906.47;4836211;29;20505;-47
2021/12/04 14:07:54;;;;;;;0.43;0.40;;;;;;;7.43;86.76;93923.34;4822698;29;20054;-46
2021/12/04 14:10:26;;;;;;;0.77;0.50;;;;;;;7.38;87.09;93920.19;4840256;29;20077;-45
2021/12/04 14:12:54;;;;;;;0.52;0.30;;;;;;;7.37;86.61;93910.53;4830749;29;20053;-47
2021/12/04 14:15:22;;;;;;;0.30;0.30;;;;;;;7.39;85.87;93921.72;4838590;29;20472;-45
2021/12/04 14:17:59;;;;;;;0.85;0.40;;;;;;;7.48;86.09;93911.50;4840247;29;20061;-46
2021/12/04 14:20:26;;;;;;;0.85;0.35;;;;;;;7.50;86.29;93922.66;4810535;29;20141;-46
2021/12/04 14:22:55;;;;;;;0.75;0.40;;;;;;;7.48;85.20;93935.72;4829059;29;20044;-44
2021/12/04 14:25:24;;;;;;;0.22;0.22;;;;;;;7.48;83.58;93931.13;4838072;29;20066;-47
2021/12/04 14:27:52;;;;;;;0.82;0.30;;;;;;;7.43;84.68;93936.00;4838805;29;20096;-46
2021/12/04 14:30:22;;;;;;;0.52;0.40;;;;;;;7.47;84.14;93950.28;4839024;29;20042;-48
2021/12/04 14:32:53;;;;;;;0.50;0.40;;;;;;;7.44;84.23;93945.63;4838320;29;20061;-45
2021/12/04 14:35:34;;;;;;;1.10;0.50;;;;;;;7.33;84.01;93934.72;4839838;29;20056;-44
2021/12/04 14:38:05;;;;;;;0.30;0.30;;;;;;;7.38;82.74;93937.09;4839936;29;20046;-45
2021/12/04 14:40:59;;;;;;;0.50;0.40;;;;;;;7.38;84.14;93952.47;4835662;29;20190;-45
2021/12/04 14:43:31;;;;;;;2.25;0.50;;;;;;;7.36;84.15;93949.34;4805643;29;20476;-47
2021/12/04 14:45:59;;;;;;;0.68;0.40;;;;;;;7.30;84.11;93940.03;4821239;29;20886;-46
2021/12/04 14:48:40;;;;;;;1.25;0.40;;;;;;;7.32;84.12;93933.16;4836053;29;20098;-48
2021/12/04 14:51:13;;;;;;;1.25;0.50;;;;;;;7.36;84.02;93943.97;4825869;29;20061;-45
2021/12/04 14:53:53;;;;;;;1.92;0.73;;;;;;;7.23;84.27;93952.22;4833160;29;20054;-44
2021/12/04 14:56:22;;;;;;;3.13;1.20;;;;;;;7.19;85.12;93940.63;4807723;29;20122;-49
2021/12/04 14:58:50;;;;;;;0.30;0.30;;;;;;;7.17;85.61;93947.50;4840288;29;20050;-44
2021/12/04 15:01:23;;;;;;;0.70;0.30;;;;;;;6.98;87.58;93937.56;4839981;29;20385;-46
2021/12/04 15:04:00;;;;;;;0.95;0.50;;;;;;;6.90;88.66;93935.91;4838681;29;20038;-46
2021/12/04 15:06:30;;;;;;;0.52;0.32;;;;;;;6.45;92.19;93948.13;4841251;29;20085;-48
2021/12/04 15:09:01;;;;;;;1.55;0.45;;;;;;;6.67;91.93;93947.41;4838692;29;20527;-45